createdAt,value
2023-05-03T00:01:45.186Z,100952.03
2023-05-03T00:04:15.817Z,100958.38
2023-05-03T00:06:44.962Z,100953.50
2023-05-03T00:09:14.398Z,100955.72
2023-05-03T00:11:44.273Z,100950.63
2023-05-03T00:14:12.705Z,100959.63
2023-05-03T00:16:41.145Z,100962.94
2023-05-03T00:19:17.694Z,100944.56
2023-05-03T00:21:49.235Z,100948.03
2023-05-03T00:24:17.548Z,100952.75
2023-05-03T00:26:47.211Z,100955.84
2023-05-03T00:29:15.966Z,100936.47
2023-05-03T00:31:45.556Z,100948.31
2023-05-03T00:34:20.881Z,100927.09
2023-05-03T00:36:49.223Z,100939.78
2023-05-03T00:39:17.612Z,100947.19
2023-05-03T00:41:47.382Z,100946.81
2023-05-03T00:44:16.240Z,100945.38
2023-05-03T00:46:44.712Z,100935.19
2023-05-03T00:49:13.253Z,100947.06
2023-05-03T00:51:42.302Z,100942.78
2023-05-03T00:54:12.234Z,100933.38
2023-05-03T00:56:51.196Z,100930.34
2023-05-03T00:59:21.920Z,100933.44
2023-05-03T01:01:53.812Z,100930.22
2023-05-03T01:04:23.435Z,100933.28
2023-05-03T01:07:05.171Z,100926.19
2023-05-03T01:09:50.604Z,100897.19
2023-05-03T01:12:31.997Z,100936.22
2023-05-03T01:15:13.252Z,100911.94
2023-05-03T01:17:49.665Z,100910.53
2023-05-03T01:20:24.900Z,100915.25
2023-05-03T01:23:07.485Z,100922.00
2023-05-03T01:25:37.281Z,100914.50
2023-05-03T01:28:05.739Z,100907.53
2023-05-03T01:30:35.594Z,100906.97
2023-05-03T01:33:12.344Z,100908.19
2023-05-03T01:35:45.736Z,100924.56
2023-05-03T01:38:15.250Z,100903.53
2023-05-03T01:40:52.009Z,100902.34
2023-05-03T01:43:23.347Z,100911.31
2023-05-03T01:45:51.920Z,100902.97
2023-05-03T01:48:20.917Z,100904.03
2023-05-03T01:50:49.268Z,100907.91
2023-05-03T01:53:17.774Z,100905.91
2023-05-03T01:55:47.572Z,100908.78
2023-05-03T01:58:16.121Z,100911.44
2023-05-03T02:00:46.498Z,100908.19
2023-05-03T02:03:14.934Z,100907.59
2023-05-03T02:05:43.357Z,100905.78
2023-05-03T02:08:11.748Z,100907.81
2023-05-03T02:10:40.091Z,100909.47
2023-05-03T02:13:09.980Z,100885.41
2023-05-03T02:15:38.388Z,100924.81
2023-05-03T02:18:08.716Z,100912.34
2023-05-03T02:20:38.142Z,100915.25
2023-05-03T02:23:06.995Z,100921.75
2023-05-03T02:25:35.470Z,100923.44
2023-05-03T02:28:03.954Z,100926.06
2023-05-03T02:30:33.827Z,100911.38
2023-05-03T02:33:02.458Z,100901.19
2023-05-03T02:35:32.287Z,100932.88
2023-05-03T02:38:01.231Z,100930.00
2023-05-03T02:40:32.822Z,100921.25
2023-05-03T02:43:02.564Z,100936.97
2023-05-03T02:45:33.029Z,100939.44
2023-05-03T02:48:01.642Z,100921.09
2023-05-03T02:50:30.062Z,100922.13
2023-05-03T02:52:58.594Z,100927.84
2023-05-03T02:55:27.080Z,100936.59
2023-05-03T02:57:56.208Z,100934.38
2023-05-03T03:00:24.758Z,100938.25
2023-05-03T03:02:54.655Z,100928.06
2023-05-03T03:05:23.561Z,100930.13
2023-05-03T03:07:53.069Z,100933.19
2023-05-03T03:10:21.944Z,100931.56
2023-05-03T03:12:50.715Z,100957.06
2023-05-03T03:15:28.135Z,100947.50
2023-05-03T03:17:58.428Z,100948.94
2023-05-03T03:20:28.037Z,100930.38
2023-05-03T03:22:56.808Z,100939.34
2023-05-03T03:25:25.312Z,100930.16
2023-05-03T03:27:56.648Z,100940.19
2023-05-03T03:30:25.028Z,100934.88
2023-05-03T03:33:04.218Z,100929.38
2023-05-03T03:35:39.196Z,100936.75
2023-05-03T03:38:08.473Z,100924.72
2023-05-03T03:40:41.405Z,100927.78
2023-05-03T03:43:10.233Z,100925.53
2023-05-03T03:45:39.231Z,100931.88
2023-05-03T03:48:09.324Z,100934.34
2023-05-03T03:50:38.374Z,100928.81
2023-05-03T03:53:09.301Z,100930.03
2023-05-03T03:55:39.054Z,100932.28
2023-05-03T03:58:08.780Z,100938.84
2023-05-03T04:00:38.183Z,100924.97
2023-05-03T04:03:14.284Z,100934.75
2023-05-03T04:05:43.155Z,100924.56
2023-05-03T04:08:11.641Z,100939.66
2023-05-03T04:10:41.412Z,100926.63
2023-05-03T04:13:10.417Z,100932.34
2023-05-03T04:15:38.847Z,100932.34
2023-05-03T04:18:08.825Z,100923.97
2023-05-03T04:20:41.236Z,100936.41
2023-05-03T04:23:10.549Z,100940.28
2023-05-03T04:25:46.566Z,100930.91
2023-05-03T04:28:16.195Z,100939.88
2023-05-03T04:30:48.394Z,100923.97
2023-05-03T04:33:22.300Z,100931.72
2023-05-03T04:35:53.728Z,100932.72
2023-05-03T04:38:22.238Z,100935.56
2023-05-03T04:40:51.272Z,100927.81
2023-05-03T04:43:20.256Z,100939.44
2023-05-03T04:45:50.577Z,100941.50
2023-05-03T04:48:23.134Z,100943.13
2023-05-03T04:50:53.197Z,100947.19
2023-05-03T04:53:23.680Z,100953.53
2023-05-03T04:56:01.717Z,100952.91
2023-05-03T04:58:32.944Z,100964.50
2023-05-03T05:01:01.313Z,100952.28
2023-05-03T05:03:32.524Z,100961.25
2023-05-03T05:06:08.261Z,100951.88
2023-05-03T05:08:36.656Z,100952.31
2023-05-03T05:11:08.212Z,100947.41
2023-05-03T05:13:36.970Z,100950.47
2023-05-03T05:16:06.014Z,100931.31
2023-05-03T05:18:34.937Z,100949.66
2023-05-03T05:21:07.084Z,100949.03
2023-05-03T05:23:36.965Z,100950.25
2023-05-03T05:26:06.442Z,100952.28
2023-05-03T05:28:34.968Z,100955.94
2023-05-03T05:31:03.421Z,100951.47
2023-05-03T05:33:32.985Z,100964.31
2023-05-03T05:36:02.269Z,100966.34
2023-05-03T05:38:33.974Z,100959.00
2023-05-03T05:41:04.544Z,100962.06
2023-05-03T05:43:33.597Z,100975.91
2023-05-03T05:46:02.081Z,100967.75
2023-05-03T05:48:31.094Z,100969.38
2023-05-03T05:51:00.158Z,100962.06
2023-05-03T05:53:28.805Z,100966.31
2023-05-03T05:56:03.032Z,100962.06
2023-05-03T05:58:34.244Z,100960.44
2023-05-03T06:01:03.802Z,100958.19
2023-05-03T06:03:35.765Z,100963.06
2023-05-03T06:06:07.111Z,100952.47
2023-05-03T06:08:36.323Z,100948.59
2023-05-03T06:11:06.345Z,100949.84
2023-05-03T06:13:38.428Z,100944.31
2023-05-03T06:16:08.551Z,100942.69
2023-05-03T06:18:36.874Z,100945.56
2023-05-03T06:21:05.774Z,100939.66
2023-05-03T06:23:35.280Z,100931.72
2023-05-03T06:26:06.606Z,100939.44
2023-05-03T06:28:35.934Z,100934.34
2023-05-03T06:31:04.396Z,100931.31
2023-05-03T06:33:34.303Z,100931.91
2023-05-03T06:36:02.664Z,100940.69
2023-05-03T06:38:31.033Z,100938.03
2023-05-03T06:40:59.369Z,100931.50
2023-05-03T06:43:29.069Z,100932.31
2023-05-03T06:46:03.330Z,100930.69
2023-05-03T06:48:31.948Z,100929.50
2023-05-03T06:51:00.452Z,100930.28
2023-05-03T06:53:28.997Z,100929.91
2023-05-03T06:55:57.473Z,100922.56
2023-05-03T06:58:25.892Z,100920.31
2023-05-03T07:00:55.696Z,100939.25
2023-05-03T07:03:24.895Z,100945.75
2023-05-03T07:05:53.379Z,100917.44
2023-05-03T07:08:21.705Z,100928.66
2023-05-03T07:10:50.398Z,100931.50
2023-05-03T07:16:52.793Z,100924.19
2023-05-03T07:19:21.757Z,100923.59
2023-05-03T07:24:59.718Z,100914.59
2023-05-03T07:27:28.270Z,100923.75
2023-05-03T07:29:56.598Z,100915.16
2023-05-03T07:32:26.492Z,100921.09
2023-05-03T07:34:55.186Z,100909.44
2023-05-03T07:37:25.011Z,100904.53
2023-05-03T07:39:53.784Z,100907.19
2023-05-03T07:42:22.192Z,100903.66
2023-05-03T07:44:50.583Z,100907.53
2023-05-03T07:47:21.600Z,100906.69
2023-05-03T07:49:51.339Z,100904.44
2023-05-03T07:52:19.677Z,100908.69
2023-05-03T07:54:54.329Z,100906.00
2023-05-03T07:57:25.251Z,100901.09
2023-05-03T07:59:53.546Z,100906.53
2023-05-03T08:02:22.583Z,100906.50
2023-05-03T08:05:08.585Z,100903.00
2023-05-03T08:07:37.019Z,100901.75
2023-05-03T08:10:06.271Z,100904.16
2023-05-03T08:12:34.747Z,100902.47
2023-05-03T08:15:05.074Z,100902.22
2023-05-03T08:17:33.539Z,100904.63
2023-05-03T08:20:02.266Z,100909.28
2023-05-03T08:22:32.610Z,100895.78
2023-05-03T08:25:01.377Z,100905.94
2023-05-03T08:27:29.866Z,100909.13
2023-05-03T08:29:58.272Z,100899.25
2023-05-03T08:32:52.616Z,100902.13
2023-05-03T08:35:21.218Z,100892.41
2023-05-03T08:37:50.969Z,100889.69
2023-05-03T08:40:22.893Z,100885.94
2023-05-03T08:42:51.608Z,100884.03
2023-05-03T08:45:20.492Z,100878.66
2023-05-03T08:47:55.291Z,100879.66
2023-05-03T08:50:25.692Z,100893.47
2023-05-03T08:53:01.510Z,100850.63
2023-05-03T08:55:30.035Z,100887.78
2023-05-03T08:57:58.502Z,100889.13
2023-05-03T09:00:30.470Z,100878.84
2023-05-03T09:02:59.861Z,100864.63
2023-05-03T09:05:38.714Z,100887.09
2023-05-03T09:08:11.910Z,100888.19
2023-05-03T09:10:42.137Z,100851.09
2023-05-03T09:13:12.160Z,100880.41
2023-05-03T09:15:40.915Z,100881.94
2023-05-03T09:18:17.612Z,100876.75
2023-05-03T09:20:52.760Z,100882.56
2023-05-03T09:23:33.921Z,100881.72
2023-05-03T09:26:37.301Z,100884.72
2023-05-03T09:29:06.589Z,100885.66
2023-05-03T09:31:37.365Z,100889.25
2023-05-03T09:34:23.113Z,100881.38
2023-05-03T09:36:51.464Z,100884.53
2023-05-03T09:39:21.580Z,100876.22
2023-05-03T09:41:50.502Z,100867.09
2023-05-03T09:44:19.404Z,100867.31
2023-05-03T09:47:04.318Z,100877.03
2023-05-03T09:49:33.039Z,100864.41
2023-05-03T09:52:02.555Z,100861.63
2023-05-03T09:54:32.587Z,100857.81
2023-05-03T09:57:02.471Z,100851.56
2023-05-03T09:59:52.155Z,100857.78
2023-05-03T10:02:21.867Z,100851.00
2023-05-03T10:04:53.326Z,100865.25
2023-05-03T10:07:24.327Z,100839.53
2023-05-03T10:09:56.834Z,100851.09
2023-05-03T10:12:26.070Z,100850.72
2023-05-03T10:14:56.197Z,100832.72
2023-05-03T10:17:43.522Z,100853.38
2023-05-03T10:20:34.790Z,100840.59
2023-05-03T10:23:11.402Z,100837.78
2023-05-03T10:26:14.112Z,100833.59
2023-05-03T10:28:42.515Z,100823.59
2023-05-03T10:31:45.572Z,100825.81
2023-05-03T10:34:24.717Z,100821.38
2023-05-03T10:36:54.428Z,100818.22
2023-05-03T10:39:23.324Z,100820.03
2023-05-03T10:42:01.611Z,100809.44
2023-05-03T10:44:36.357Z,100803.19
2023-05-03T10:47:15.661Z,100804.31
2023-05-03T10:49:45.594Z,100808.69
2023-05-03T10:52:49.658Z,100816.22
2023-05-03T10:55:20.859Z,100806.44
2023-05-03T10:57:51.145Z,100793.41
2023-05-03T11:00:25.736Z,100816.16
2023-05-03T11:03:12.499Z,100794.28
2023-05-03T11:05:43.489Z,100788.47
2023-05-03T11:08:13.998Z,100789.25
2023-05-03T11:10:42.955Z,100792.38
2023-05-03T11:13:13.341Z,100798.03
2023-05-03T11:15:42.230Z,100792.19
2023-05-03T11:18:12.503Z,100786.13
2023-05-03T11:20:41.057Z,100784.00
2023-05-03T11:23:09.489Z,100788.94
2023-05-03T11:25:39.288Z,100777.75
2023-05-03T11:28:07.681Z,100777.84
2023-05-03T11:30:38.418Z,100769.03
2023-05-03T11:33:40.928Z,100774.41
2023-05-03T11:36:11.138Z,100769.16
2023-05-03T11:38:40.423Z,100762.34
2023-05-03T11:41:16.570Z,100765.91
2023-05-03T11:43:46.162Z,100757.16
2023-05-03T11:46:21.667Z,100756.72
2023-05-03T11:48:50.485Z,100762.38
2023-05-03T11:51:40.383Z,100754.91
2023-05-03T11:54:20.868Z,100757.63
2023-05-03T11:56:56.703Z,100757.16
2023-05-03T11:59:37.135Z,100752.38
2023-05-03T12:02:09.380Z,100745.97
2023-05-03T12:04:43.082Z,100748.13
2023-05-03T12:07:15.176Z,100737.19
2023-05-03T12:09:52.638Z,100740.47
2023-05-03T12:12:32.490Z,100750.97
2023-05-03T12:15:04.290Z,100746.75
2023-05-03T12:17:42.526Z,100742.19
2023-05-03T12:21:03.837Z,100739.00
2023-05-03T12:23:09.828Z,100738.75
2023-05-03T12:25:40.318Z,100733.50
2023-05-03T12:30:45.771Z,100727.50
2023-05-03T12:33:21.752Z,100724.06
2023-05-03T12:35:53.405Z,100716.31
2023-05-03T12:38:24.195Z,100705.09
2023-05-03T12:40:54.546Z,100717.19
2023-05-03T12:43:23.167Z,100695.19
2023-05-03T12:46:07.809Z,100686.66
2023-05-03T12:48:45.851Z,100700.31
2023-05-03T12:51:20.045Z,100702.47
2023-05-03T12:53:55.253Z,100697.69
2023-05-03T12:56:25.432Z,100702.81
2023-05-03T13:04:26.543Z,100692.72
2023-05-03T13:06:51.754Z,100682.59
2023-05-03T13:09:37.118Z,100673.22
2023-05-03T13:12:17.417Z,100665.53
2023-05-03T13:14:45.910Z,100677.06
2023-05-03T13:17:14.649Z,100675.53
2023-05-03T13:19:45.429Z,100665.41
2023-05-03T13:22:14.346Z,100665.44
2023-05-03T13:24:44.671Z,100655.56
2023-05-03T13:27:13.444Z,100665.22
2023-05-03T13:29:42.095Z,100648.38
2023-05-03T13:32:10.664Z,100644.66
2023-05-03T13:34:39.106Z,100637.97
2023-05-03T13:37:08.793Z,100622.97
2023-05-03T13:39:37.194Z,100613.31
2023-05-03T13:42:06.169Z,100618.44
2023-05-03T13:44:34.632Z,100616.31
2023-05-03T13:47:03.429Z,100604.53
2023-05-03T13:49:31.806Z,100611.78
2023-05-03T13:52:00.146Z,100609.91
2023-05-03T13:54:31.563Z,100598.91
2023-05-03T13:57:01.356Z,100593.81
2023-05-03T13:59:29.817Z,100594.63
2023-05-03T14:02:00.115Z,100600.03
2023-05-03T14:04:28.887Z,100597.06
2023-05-03T14:06:58.713Z,100602.19
2023-05-03T14:09:27.535Z,100598.41
2023-05-03T14:11:57.744Z,100593.59
2023-05-03T14:14:28.690Z,100589.84
2023-05-03T14:16:57.054Z,100591.97
2023-05-03T14:19:25.572Z,100587.69
2023-05-03T14:22:01.033Z,100588.25
2023-05-03T14:24:29.367Z,100580.72
2023-05-03T14:27:01.448Z,100586.38
2023-05-03T14:29:29.769Z,100580.47
2023-05-03T14:31:58.182Z,100583.16
2023-05-03T14:34:26.607Z,100560.13
2023-05-03T14:36:55.227Z,100567.34
2023-05-03T14:39:23.595Z,100560.91
2023-05-03T14:41:52.059Z,100569.50
2023-05-03T14:44:21.832Z,100556.63
2023-05-03T14:46:50.345Z,100562.00
2023-05-03T14:49:33.849Z,100565.22
2023-05-03T14:52:02.172Z,100563.63
2023-05-03T14:54:30.494Z,100554.47
2023-05-03T14:56:59.024Z,100555.28
2023-05-03T14:59:28.784Z,100560.13
2023-05-03T15:01:57.224Z,100555.81
2023-05-03T15:04:25.864Z,100552.31
2023-05-03T15:06:54.222Z,100551.50
2023-05-03T15:09:22.888Z,100547.19
2023-05-03T15:11:51.225Z,100557.66
2023-05-03T15:14:19.672Z,100557.69
2023-05-03T15:16:49.837Z,100553.94
2023-05-03T15:19:18.199Z,100550.69
2023-05-03T15:21:47.637Z,100547.75
2023-05-03T15:24:16.256Z,100543.72
2023-05-03T15:26:44.843Z,100549.06
2023-05-03T15:29:13.324Z,100553.34
2023-05-03T15:31:42.845Z,100557.09
2023-05-03T15:34:12.769Z,100551.72
2023-05-03T15:36:41.704Z,100554.97
2023-05-03T15:39:10.236Z,100549.59
2023-05-03T15:41:41.617Z,100554.41
2023-05-03T15:44:10.156Z,100549.31
2023-05-03T15:46:40.830Z,100550.94
2023-05-03T15:49:12.824Z,100552.81
2023-05-03T15:51:41.262Z,100541.00
2023-05-03T15:54:09.586Z,100543.16
2023-05-03T15:56:38.716Z,100535.09
2023-05-03T15:59:07.554Z,100528.38
2023-05-03T16:01:37.279Z,100525.44
2023-05-03T16:04:06.757Z,100533.22
2023-05-03T16:06:36.513Z,100533.50
2023-05-03T16:09:06.525Z,100540.97
2023-05-03T16:11:35.695Z,100529.72
2023-05-03T16:14:04.920Z,100534.00
2023-05-03T16:16:33.365Z,100530.81
2023-05-03T16:19:01.729Z,100531.59
2023-05-03T16:21:30.088Z,100534.81
2023-05-03T16:24:00.372Z,100536.44
2023-05-03T16:26:28.805Z,100539.13
2023-05-03T16:28:57.332Z,100536.97
2023-05-03T16:31:25.812Z,100537.25
2023-05-03T16:33:54.189Z,100536.19
2023-05-03T16:36:22.585Z,100536.19
2023-05-03T16:38:50.954Z,100528.13
2023-05-03T16:41:21.043Z,100527.31
2023-05-03T16:43:49.540Z,100529.78
2023-05-03T16:46:17.905Z,100524.91
2023-05-03T16:48:46.339Z,100524.66
2023-05-03T16:51:14.673Z,100524.91
2023-05-03T16:53:42.995Z,100524.38
2023-05-03T16:56:11.653Z,100528.69
2023-05-03T16:58:41.301Z,100528.16
2023-05-03T17:01:09.790Z,100522.00
2023-05-03T17:03:38.310Z,100535.13
2023-05-03T17:06:07.583Z,100538.91
2023-05-03T17:08:36.393Z,100539.44
2023-05-03T17:11:10.497Z,100529.25
2023-05-03T17:13:41.511Z,100538.63
2023-05-03T17:16:12.761Z,100532.47
2023-05-03T17:18:41.430Z,100528.72
2023-05-03T17:21:11.180Z,100530.03
2023-05-03T17:23:40.250Z,100535.16
2023-05-03T17:26:11.087Z,100535.44
2023-05-03T17:28:41.489Z,100541.06
2023-05-03T17:31:09.855Z,100543.22
2023-05-03T17:33:38.190Z,100546.44
2023-05-03T17:36:07.289Z,100546.69
2023-05-03T17:38:36.143Z,100539.47
2023-05-03T17:41:06.403Z,100546.44
2023-05-03T17:43:34.789Z,100542.41
2023-05-03T17:46:20.387Z,100539.19
2023-05-03T17:48:50.646Z,100534.88
2023-05-03T17:51:18.989Z,100541.84
2023-05-03T17:53:48.081Z,100564.63
2023-05-03T17:56:18.501Z,100546.91
2023-05-03T17:58:47.658Z,100551.75
2023-05-03T18:01:17.530Z,100553.06
2023-05-03T18:03:45.928Z,100554.41
2023-05-03T18:06:14.938Z,100564.84
2023-05-03T18:08:43.469Z,100546.09
2023-05-03T18:11:11.766Z,100571.53
2023-05-03T18:13:41.315Z,100558.94
2023-05-03T18:16:10.329Z,100552.22
2023-05-03T18:18:40.134Z,100564.03
2023-05-03T18:21:10.473Z,100567.22
2023-05-03T18:23:39.874Z,100567.75
2023-05-03T18:26:08.792Z,100558.09
2023-05-03T18:28:39.846Z,100553.00
2023-05-03T18:31:08.483Z,100564.22
2023-05-03T18:33:37.124Z,100558.88
2023-05-03T18:36:11.685Z,100562.63
2023-05-03T18:38:40.154Z,100569.59
2023-05-03T18:41:14.161Z,100577.59
2023-05-03T18:43:43.347Z,100582.41
2023-05-03T18:46:12.329Z,100584.00
2023-05-03T18:48:41.488Z,100586.63
2023-05-03T18:51:11.199Z,100591.69
2023-05-03T18:53:39.474Z,100588.72
2023-05-03T18:56:07.915Z,100597.28
2023-05-03T18:58:36.194Z,100594.59
2023-05-03T19:01:05.938Z,100595.38
2023-05-03T19:03:34.590Z,100599.63
2023-05-03T19:06:04.193Z,100595.84
2023-05-03T19:08:33.980Z,100597.94
2023-05-03T19:11:09.239Z,100600.03
2023-05-03T19:13:37.700Z,100617.94
2023-05-03T19:16:06.713Z,100620.59
2023-05-03T19:18:37.124Z,100614.66
2023-05-03T19:21:05.970Z,100610.63
2023-05-03T19:23:36.043Z,100616.19
2023-05-03T19:26:04.502Z,100607.28
2023-05-03T19:28:32.879Z,100590.38
2023-05-03T19:31:04.833Z,100617.34
2023-05-03T19:33:33.869Z,100617.31
2023-05-03T19:36:06.409Z,100616.22
2023-05-03T19:38:36.766Z,100619.88
2023-05-03T19:41:08.327Z,100617.72
2023-05-03T19:43:36.915Z,100614.19
2023-05-03T19:46:05.482Z,100616.00
2023-05-03T19:48:34.296Z,100624.81
2023-05-03T19:51:05.210Z,100612.69
2023-05-03T19:53:35.108Z,100608.88
2023-05-03T19:56:04.194Z,100619.53
2023-05-03T19:58:33.123Z,100609.84
2023-05-03T20:01:01.802Z,100614.34
2023-05-03T20:03:30.344Z,100616.94
2023-05-03T20:05:58.901Z,100606.44
2023-05-03T20:08:27.295Z,100609.03
2023-05-03T20:10:57.111Z,100614.06
2023-05-03T20:13:27.706Z,100607.03
2023-05-03T20:15:56.569Z,100605.13
2023-05-03T20:18:25.202Z,100610.44
2023-05-03T20:20:53.770Z,100611.97
2023-05-03T20:23:22.288Z,100615.63
2023-05-03T20:25:50.776Z,100615.59
2023-05-03T20:28:20.507Z,100607.50
2023-05-03T20:30:48.934Z,100605.31
2023-05-03T20:33:17.337Z,100613.25
2023-05-03T20:35:45.970Z,100605.75
2023-05-03T20:38:14.499Z,100604.88
2023-05-03T20:40:42.931Z,100584.50
2023-05-03T20:43:11.313Z,100599.63
2023-05-03T20:45:41.377Z,100599.31
2023-05-03T20:48:09.935Z,100582.44
2023-05-03T20:50:38.350Z,100592.75
2023-05-03T20:53:06.820Z,100597.78
2023-05-03T20:55:35.206Z,100590.50
2023-05-03T20:58:07.054Z,100573.59
2023-05-03T21:00:35.517Z,100594.91
2023-05-03T21:03:06.578Z,100584.13
2023-05-03T21:05:42.493Z,100591.25
2023-05-03T21:08:10.911Z,100596.03
2023-05-03T21:10:39.570Z,100604.75
2023-05-03T21:13:08.084Z,100596.66
2023-05-03T21:15:38.420Z,100602.97
2023-05-03T21:18:08.327Z,100593.84
2023-05-03T21:20:37.749Z,100594.81
2023-05-03T21:23:06.596Z,100599.56
2023-05-03T21:25:35.155Z,100595.44
2023-05-03T21:28:03.696Z,100588.75
2023-05-03T21:30:32.226Z,100593.97
2023-05-03T21:33:00.820Z,100582.97
2023-05-03T21:35:30.730Z,100592.53
2023-05-03T21:37:59.126Z,100598.31
2023-05-03T21:40:28.221Z,100600.66
2023-05-03T21:42:56.793Z,100575.50
2023-05-03T21:45:25.587Z,100558.84
2023-05-03T21:47:53.957Z,100586.78
2023-05-03T21:50:23.663Z,100568.06
2023-05-03T21:52:53.587Z,100574.09
2023-05-03T21:55:22.236Z,100591.84
2023-05-03T21:57:51.423Z,100555.00
2023-05-03T22:00:20.984Z,100579.47
2023-05-03T22:02:49.945Z,100575.66
2023-05-03T22:05:18.670Z,100573.50
2023-05-03T22:07:48.689Z,100567.25
2023-05-03T22:10:18.910Z,100564.00
2023-05-03T22:12:47.844Z,100587.88
2023-05-03T22:15:17.080Z,100566.50
2023-05-03T22:17:45.565Z,100566.97
2023-05-03T22:20:14.368Z,100555.16
2023-05-03T22:22:42.742Z,100557.72
2023-05-03T22:25:11.403Z,100554.50
2023-05-03T22:27:41.244Z,100544.53
2023-05-03T22:30:11.243Z,100559.16
2023-05-03T22:32:39.738Z,100557.75
2023-05-03T22:35:09.426Z,100554.75
2023-05-03T22:37:38.038Z,100559.16
2023-05-03T22:40:08.685Z,100569.44
2023-05-03T22:42:37.327Z,100552.88
2023-05-03T22:45:08.924Z,100550.94
2023-05-03T22:47:37.523Z,100540.75
2023-05-03T22:50:07.664Z,100552.66
2023-05-03T22:52:36.088Z,100546.78
2023-05-03T22:55:04.892Z,100550.72
2023-05-03T22:57:34.585Z,100558.38
2023-05-03T23:00:04.500Z,100556.16
2023-05-03T23:02:34.893Z,100557.22
2023-05-03T23:05:03.475Z,100558.72
2023-05-03T23:07:31.945Z,100550.97
2023-05-03T23:10:05.107Z,100550.63
2023-05-03T23:12:34.018Z,100549.00
2023-05-03T23:15:02.524Z,100546.22
2023-05-03T23:17:31.572Z,100549.94
2023-05-03T23:20:01.520Z,100552.03
2023-05-03T23:22:29.982Z,100542.91
2023-05-03T23:24:59.115Z,100531.91
2023-05-03T23:27:27.583Z,100528.91
2023-05-03T23:29:56.563Z,100561.84
2023-05-03T23:32:25.652Z,100542.66
2023-05-03T23:34:54.606Z,100535.13
2023-05-03T23:37:24.516Z,100534.56
2023-05-03T23:39:53.641Z,100543.81
2023-05-03T23:42:22.354Z,100544.47
2023-05-03T23:44:55.149Z,100542.63
2023-05-03T23:47:24.773Z,100546.00
2023-05-03T23:49:53.439Z,100544.84
2023-05-03T23:52:23.462Z,100525.88
2023-05-03T23:54:53.432Z,100538.38
2023-05-03T23:57:22.138Z,100553.97
2023-05-03T23:59:50.719Z,100530.28
